Time;durP1;ratioP1;P1;durP2;ratioP2;P2;SDS_P1;SDS_P2;PMS_P1;PMS_P2;Temp;Humidity;BMP_temperature;BMP_pressure;BME280_temperature;BME280_humidity;BME280_pressure;Samples;Min_cycle;Max_cycle;Signal;HPM_P1;HPM_P2
2022/06/28 00:00:30;;;;;;;13.80;9.37;;;;;;;37.04;45.59;101186.66;4822766;29;20434;-66
2022/06/28 00:02:56;;;;;;;26.33;10.20;;;;;;;36.96;45.58;101184.63;4824221;29;20405;-66
2022/06/28 00:05:23;;;;;;;15.80;7.90;;;;;;;36.92;45.47;101178.19;4823654;29;20780;-65
2022/06/28 00:07:49;;;;;;;18.40;9.00;;;;;;;36.95;45.40;101180.28;4837547;29;20995;-66
2022/06/28 00:10:16;;;;;;;21.63;8.07;;;;;;;36.83;45.64;101174.47;4822206;29;20512;-66
2022/06/28 00:12:43;;;;;;;20.60;7.50;;;;;;;36.93;45.59;101168.97;4807100;29;20433;-65
2022/06/28 00:17:57;;;;;;;22.23;10.37;;;;;;;36.95;45.18;101161.38;4827138;29;20501;-66
2022/06/28 00:20:23;;;;;;;18.37;8.90;;;;;;;36.95;45.11;101150.56;4825407;29;20554;-65
2022/06/28 00:22:50;;;;;;;22.10;8.77;;;;;;;36.91;45.69;101148.75;4825640;29;20512;-66
2022/06/28 00:25:16;;;;;;;14.03;7.33;;;;;;;36.92;45.44;101137.63;4810668;29;20429;-66
2022/06/28 00:27:43;;;;;;;25.33;8.50;;;;;;;36.88;45.33;101138.50;4840661;29;20440;-65
2022/06/28 00:30:10;;;;;;;18.00;7.43;;;;;;;36.91;45.78;101129.81;4810498;29;20860;-67
2022/06/28 00:32:36;;;;;;;23.67;10.80;;;;;;;36.78;45.36;101128.63;4825468;29;20458;-67
2022/06/28 00:35:03;;;;;;;15.00;9.70;;;;;;;36.74;45.70;101124.88;4826888;29;20405;-67
2022/06/28 00:37:30;;;;;;;17.83;8.13;;;;;;;36.76;45.76;101114.56;4840648;29;20441;-66
2022/06/28 00:39:56;;;;;;;14.23;8.40;;;;;;;36.75;45.44;101111.06;4825123;29;20437;-66
2022/06/28 00:42:22;;;;;;;24.27;10.20;;;;;;;36.81;45.85;101115.31;4825220;29;20425;-66
2022/06/28 00:44:49;;;;;;;21.37;8.60;;;;;;;36.70;45.69;101119.25;4825317;29;20429;-66
2022/06/28 00:47:16;;;;;;;12.47;7.23;;;;;;;36.66;46.15;101120.13;4825109;29;20424;-66
2022/06/28 00:49:43;;;;;;;18.90;9.03;;;;;;;36.41;46.68;101124.78;4826566;29;20449;-65
2022/06/28 00:52:12;;;;;;;18.33;9.83;;;;;;;36.48;46.86;101129.81;4840456;29;20517;-65
2022/06/28 00:54:38;;;;;;;18.53;9.03;;;;;;;36.39;47.11;101121.53;4809962;29;20433;-66
2022/06/28 00:57:05;;;;;;;16.80;8.83;;;;;;;36.37;47.04;101115.59;4840206;29;20425;-66
2022/06/28 00:59:31;;;;;;;19.90;9.43;;;;;;;36.32;46.87;101116.47;4824884;29;20427;-66
2022/06/28 01:01:58;;;;;;;11.00;7.00;;;;;;;36.47;46.92;101114.72;4826534;29;20921;-66
2022/06/28 01:04:25;;;;;;;20.13;9.47;;;;;;;36.50;45.92;101112.22;4824791;29;20918;-66
2022/06/28 01:06:53;;;;;;;15.07;9.20;;;;;;;36.52;46.17;101111.91;4824819;29;20425;-66
2022/06/28 01:09:20;;;;;;;12.57;6.87;;;;;;;36.67;46.09;101111.72;4824675;29;20469;-66
2022/06/28 01:11:46;;;;;;;20.43;8.00;;;;;;;36.58;46.18;101118.88;4826315;29;20402;-66
2022/06/28 01:14:14;;;;;;;25.20;10.80;;;;;;;36.37;46.43;101117.50;4826289;29;20466;-67
2022/06/28 01:16:40;;;;;;;14.63;8.33;;;;;;;36.20;47.29;101112.56;4824788;29;20590;-67
2022/06/28 01:19:08;;;;;;;19.17;8.97;;;;;;;36.44;47.06;101117.97;4824723;29;20959;-67
2022/06/28 01:21:37;;;;;;;23.57;8.43;;;;;;;36.38;46.80;101116.41;4824358;29;21006;-65
2022/06/28 01:24:04;;;;;;;25.50;8.50;;;;;;;36.22;46.90;101121.19;4809807;29;20425;-66
2022/06/28 01:26:31;;;;;;;17.90;8.93;;;;;;;36.30;46.56;101124.06;4824344;29;20965;-65
2022/06/28 01:28:58;;;;;;;18.47;8.50;;;;;;;36.52;46.53;101128.97;4809305;29;20493;-66
2022/06/28 01:31:24;;;;;;;19.43;11.00;;;;;;;36.19;47.28;101121.75;4826319;29;20493;-66
2022/06/28 01:33:52;;;;;;;11.40;8.00;;;;;;;36.23;46.69;101122.81;4809353;29;21033;-66
2022/06/28 01:36:19;;;;;;;24.27;9.10;;;;;;;36.37;47.04;101126.41;4824413;29;20513;-66
2022/06/28 01:38:47;;;;;;;13.93;7.20;;;;;;;36.49;47.24;101120.63;4824200;29;20935;-65
2022/06/28 01:43:59;;;;;;;12.23;8.17;;;;;;;36.31;47.28;101119.47;4824721;29;20427;-65
2022/06/28 01:46:26;;;;;;;22.00;10.20;;;;;;;36.21;47.18;101119.56;4839559;29;20813;-65
2022/06/28 01:48:54;;;;;;;17.77;9.83;;;;;;;36.13;47.45;101118.31;4823987;29;20460;-65
2022/06/28 01:51:20;;;;;;;16.67;7.13;;;;;;;36.09;47.39;101103.75;4824183;29;20477;-65
2022/06/28 01:53:46;;;;;;;18.80;9.47;;;;;;;36.17;47.19;101107.75;4824139;29;20909;-65
2022/06/28 01:56:12;;;;;;;20.13;9.93;;;;;;;36.27;47.35;101110.31;4824051;29;20429;-65
2022/06/28 01:58:39;;;;;;;13.77;7.60;;;;;;;36.31;46.60;101104.06;4839267;29;20448;-65
2022/06/28 02:01:06;;;;;;;27.43;11.03;;;;;;;36.42;47.04;101112.88;4823860;29;20560;-66
2022/06/28 02:03:32;;;;;;;26.50;12.93;;;;;;;36.48;47.07;101114.41;4823973;29;20486;-66
2022/06/28 02:05:58;;;;;;;23.77;10.30;;;;;;;36.57;46.72;101107.25;4823921;29;20421;-66
2022/06/28 02:08:24;;;;;;;31.97;11.07;;;;;;;36.54;46.85;101107.06;4823715;29;20565;-65
2022/06/28 02:10:50;;;;;;;16.70;9.10;;;;;;;36.47;46.13;101107.41;4825474;29;20402;-65
2022/06/28 02:13:17;;;;;;;15.30;7.63;;;;;;;36.55;46.07;101103.25;4838968;29;20494;-66
2022/06/28 02:15:43;;;;;;;15.23;8.37;;;;;;;36.54;46.09;101109.75;4808734;29;20438;-66
2022/06/28 02:18:09;;;;;;;18.53;9.90;;;;;;;36.57;46.06;101101.84;4838974;29;20425;-65
2022/06/28 02:20:35;;;;;;;14.57;8.40;;;;;;;36.50;46.15;101100.59;4838760;29;20501;-65
2022/06/28 02:23:01;;;;;;;16.57;7.53;;;;;;;36.69;46.19;101101.41;4825242;29;20462;-65
2022/06/28 02:25:28;;;;;;;15.00;9.40;;;;;;;36.78;45.43;101107.78;4838709;29;20497;-65
2022/06/28 02:27:54;;;;;;;17.47;8.93;;;;;;;36.78;45.87;101096.97;4839046;29;20429;-65
2022/06/28 02:30:21;;;;;;;20.93;9.60;;;;;;;36.75;45.71;101104.88;4838542;29;20472;-67
2022/06/28 02:32:47;;;;;;;23.30;12.50;;;;;;;36.75;46.01;101104.88;4824985;29;20405;-67
2022/06/28 02:40:43;;;;;;;25.33;9.50;;;;;;;36.72;46.40;101098.16;4824459;29;20501;-67
2022/06/28 02:43:09;;;;;;;24.30;8.10;;;;;;;36.58;45.96;101113.47;4824836;29;20505;-66
2022/06/28 02:45:39;;;;;;;22.80;8.53;;;;;;;36.70;45.99;101097.63;4824895;29;20417;-66
2022/06/28 02:48:06;;;;;;;18.00;9.87;;;;;;;36.59;46.27;101101.59;4838318;29;20468;-66
2022/06/28 02:50:32;;;;;;;17.50;8.20;;;;;;;36.59;46.65;101098.88;4824833;29;20589;-66
2022/06/28 02:52:59;;;;;;;19.47;9.70;;;;;;;36.56;46.17;101102.16;4823192;29;20410;-66
2022/06/28 02:55:25;;;;;;;19.90;10.53;;;;;;;36.52;46.51;101101.13;4838353;29;20913;-66
2022/06/28 02:57:51;;;;;;;21.73;9.77;;;;;;;36.59;46.66;101101.59;4838314;29;20417;-66
2022/06/28 03:00:19;;;;;;;21.07;10.60;;;;;;;36.46;46.66;101105.81;4824569;29;20406;-66
2022/06/28 03:02:46;;;;;;;22.20;9.60;;;;;;;36.52;46.15;101109.22;4822934;29;20424;-66
2022/06/28 03:05:15;;;;;;;20.03;10.00;;;;;;;36.42;46.47;101114.78;4822938;29;20514;-66
2022/06/28 03:07:43;;;;;;;25.97;10.00;;;;;;;36.44;46.69;101107.97;4823073;29;20429;-66
2022/06/28 03:10:10;;;;;;;26.97;10.73;;;;;;;36.54;46.47;101118.66;4822873;29;20506;-66
2022/06/28 03:12:36;;;;;;;18.10;9.77;;;;;;;36.55;46.40;101117.56;4822908;29;20429;-68
2022/06/28 03:15:03;;;;;;;20.97;9.30;;;;;;;36.61;45.90;101123.72;4822755;29;20972;-67
2022/06/28 03:17:29;;;;;;;12.67;7.63;;;;;;;36.64;45.91;101120.41;4837992;29;20483;-67
2022/06/28 03:19:56;;;;;;;16.93;11.10;;;;;;;36.65;45.80;101118.50;4837930;29;20481;-67
2022/06/28 03:22:22;;;;;;;28.40;10.00;;;;;;;36.69;46.10;101119.53;4822792;29;20441;-67
2022/06/28 03:24:48;;;;;;;26.23;10.40;;;;;;;36.58;45.88;101114.25;4837954;29;20517;-66
2022/06/28 03:27:15;;;;;;;23.63;10.93;;;;;;;36.70;45.82;101127.34;4823034;29;20429;-65
2022/06/28 03:29:41;;;;;;;16.60;9.33;;;;;;;36.77;46.02;101127.81;4822573;29;20906;-66
2022/06/28 03:32:08;;;;;;;26.37;12.40;;;;;;;36.77;46.18;101127.81;4824268;29;20429;-66
2022/06/28 03:34:34;;;;;;;21.77;9.47;;;;;;;36.72;45.65;101129.78;4837844;29;20422;-67
2022/06/28 03:37:00;;;;;;;20.97;9.60;;;;;;;36.81;45.61;101122.63;4824103;29;20414;-67
2022/06/28 03:39:26;;;;;;;23.57;11.70;;;;;;;36.79;45.90;101133.72;4834600;29;20414;-67
2022/06/28 03:41:53;;;;;;;23.43;8.73;;;;;;;36.76;45.86;101130.78;4804282;29;20441;-68
2022/06/28 03:44:19;;;;;;;16.20;7.63;;;;;;;36.62;46.19;101129.91;4804373;29;20426;-66
2022/06/28 03:46:45;;;;;;;20.83;8.60;;;;;;;36.66;46.00;101133.66;4805790;29;20428;-66
2022/06/28 03:49:11;;;;;;;17.27;9.87;;;;;;;36.58;45.67;101126.97;4804322;29;20462;-66
2022/06/28 03:51:37;;;;;;;18.70;9.00;;;;;;;36.39;46.31;101131.50;4804019;29;20438;-66
2022/06/28 03:54:04;;;;;;;13.50;8.97;;;;;;;36.54;46.23;101131.38;4804053;29;20483;-66
2022/06/28 03:56:30;;;;;;;21.37;9.90;;;;;;;36.42;46.25;101136.38;4804224;29;20426;-66
2022/06/28 03:58:56;;;;;;;15.70;9.03;;;;;;;36.47;46.49;101133.63;4804225;29;20461;-66
2022/06/28 04:01:22;;;;;;;16.40;8.63;;;;;;;36.57;46.42;101130.78;4805664;29;20419;-65
2022/06/28 04:03:48;;;;;;;18.30;9.20;;;;;;;36.65;45.93;101140.13;4804048;29;20507;-65
2022/06/28 04:06:14;;;;;;;14.13;9.63;;;;;;;36.67;46.32;101137.97;4804143;29;20526;-66
2022/06/28 04:08:40;;;;;;;16.30;9.33;;;;;;;36.62;46.37;101143.44;4804282;29;20462;-66
2022/06/28 04:11:16;;;;;;;22.70;9.33;;;;;;;36.65;46.36;101142.84;4804050;29;20446;-65
2022/06/28 04:13:43;;;;;;;22.60;10.30;;;;;;;36.71;46.40;101138.97;4804037;29;20434;-66
2022/06/28 04:16:10;;;;;;;18.27;11.00;;;;;;;36.70;46.26;101142.75;4804033;29;20546;-66
2022/06/28 04:18:36;;;;;;;10.50;8.13;;;;;;;36.66;46.44;101147.97;4805387;29;20954;-65
2022/06/28 04:21:03;;;;;;;20.10;7.80;;;;;;;36.74;46.23;101146.50;4803840;29;20486;-66
2022/06/28 04:23:30;;;;;;;17.40;7.70;;;;;;;36.69;45.11;101138.47;4819158;29;20418;-65
2022/06/28 04:25:56;;;;;;;15.53;9.60;;;;;;;36.57;45.25;101142.38;4803864;29;20424;-65
2022/06/28 04:28:22;;;;;;;20.03;10.17;;;;;;;36.59;45.09;101142.91;4803848;29;20486;-68
2022/06/28 04:30:49;;;;;;;19.73;9.37;;;;;;;36.48;45.74;101146.84;4804094;29;20811;-67
2022/06/28 04:33:15;;;;;;;23.40;12.73;;;;;;;36.56;45.72;101148.88;4803892;29;20896;-68
2022/06/28 04:35:41;;;;;;;21.33;9.70;;;;;;;36.60;45.53;101151.84;4805291;29;20445;-67
2022/06/28 04:38:07;;;;;;;22.30;10.17;;;;;;;36.54;45.87;101156.50;4805247;29;20434;-67
2022/06/28 04:40:34;;;;;;;21.33;9.77;;;;;;;36.46;46.39;101159.00;4806910;29;20433;-67
2022/06/28 04:43:02;;;;;;;17.97;9.83;;;;;;;36.46;46.08;101148.19;4821808;29;20453;-67
2022/06/28 04:45:28;;;;;;;16.10;9.23;;;;;;;36.51;46.10;101151.66;4823673;29;20430;-67
2022/06/28 04:47:54;;;;;;;24.97;10.83;;;;;;;36.53;46.63;101157.59;4837157;29;20461;-67
2022/06/28 04:50:20;;;;;;;15.50;8.93;;;;;;;36.48;46.74;101154.94;4821596;29;20508;-67
2022/06/28 04:52:46;;;;;;;19.67;9.93;;;;;;;36.42;46.59;101158.00;4837096;29;20837;-66
2022/06/28 04:55:13;;;;;;;20.40;10.07;;;;;;;36.47;46.44;101145.25;4806752;29;20425;-66
2022/06/28 04:57:39;;;;;;;19.03;12.23;;;;;;;36.41;46.92;101145.59;4821698;29;20942;-66
2022/06/28 05:00:06;;;;;;;29.50;11.77;;;;;;;36.52;46.39;101157.84;4837042;29;20471;-66
2022/06/28 05:02:32;;;;;;;22.47;9.70;;;;;;;36.53;46.53;101157.59;4822679;29;20425;-66
2022/06/28 05:04:58;;;;;;;23.63;12.73;;;;;;;36.53;46.50;101164.91;4826302;29;20406;-66
2022/06/28 05:07:24;;;;;;;17.93;10.83;;;;;;;36.53;46.49;101160.28;4840097;29;20516;-66
2022/06/28 05:09:50;;;;;;;20.07;9.43;;;;;;;36.57;46.15;101165.91;4826287;29;20552;-66
2022/06/28 05:12:16;;;;;;;21.73;10.70;;;;;;;36.63;46.04;101163.94;4824765;29;20442;-66
2022/06/28 05:14:42;;;;;;;18.40;10.43;;;;;;;36.52;46.28;101168.66;4826207;29;20413;-66
2022/06/28 05:17:09;;;;;;;31.10;11.90;;;;;;;36.59;46.76;101180.75;4809691;29;20877;-66
2022/06/28 05:19:35;;;;;;;17.03;8.93;;;;;;;36.53;46.16;101184.63;4824431;29;20444;-66
2022/06/28 05:22:01;;;;;;;26.90;10.30;;;;;;;36.44;46.42;101180.94;4824608;29;20486;-66
2022/06/28 05:24:27;;;;;;;27.80;11.37;;;;;;;36.45;46.25;101182.53;4826184;29;20451;-66
2022/06/28 05:26:54;;;;;;;29.87;10.10;;;;;;;36.50;46.45;101192.47;4839777;29;20429;-66
2022/06/28 05:29:20;;;;;;;18.93;10.20;;;;;;;36.50;46.29;101181.66;4839686;29;20461;-65
2022/06/28 05:31:46;;;;;;;15.83;8.17;;;;;;;36.40;46.54;101184.47;4825728;29;20417;-65
2022/06/28 05:34:13;;;;;;;23.40;11.40;;;;;;;36.37;46.67;101185.84;4824457;29;20406;-66
2022/06/28 05:36:40;;;;;;;20.70;9.30;;;;;;;36.23;46.77;101183.03;4824336;29;20785;-65
2022/06/28 05:39:06;;;;;;;23.23;10.80;;;;;;;36.41;46.69;101199.63;4836432;29;20445;-66
2022/06/28 05:41:33;;;;;;;14.30;8.40;;;;;;;36.43;46.47;101192.81;4806521;29;20479;-65
2022/06/28 05:44:00;;;;;;;13.60;8.73;;;;;;;36.39;45.97;101193.66;4806148;29;20517;-67
2022/06/28 05:46:26;;;;;;;18.63;8.63;;;;;;;36.52;46.03;101184.88;4806161;29;20511;-66
2022/06/28 05:48:52;;;;;;;20.00;9.07;;;;;;;36.63;46.19;101197.19;4806072;29;20480;-67
2022/06/28 05:51:19;;;;;;;24.07;11.73;;;;;;;36.64;45.92;101192.56;4806033;29;20419;-66
2022/06/28 05:53:45;;;;;;;21.10;9.53;;;;;;;36.68;45.55;101196.31;4806074;29;20414;-66
2022/06/28 05:56:11;;;;;;;17.03;9.90;;;;;;;36.70;45.36;101200.34;4807486;29;20406;-67
2022/06/28 05:58:37;;;;;;;17.03;8.70;;;;;;;36.58;45.92;101203.44;4806167;29;21004;-66
2022/06/28 06:01:04;;;;;;;27.43;12.50;;;;;;;36.55;46.54;101204.03;4812485;29;20516;-69
2022/06/28 06:03:30;;;;;;;32.50;11.50;;;;;;;36.53;46.41;101208.94;4828440;29;20453;-68
2022/06/28 06:05:56;;;;;;;28.07;11.53;;;;;;;36.61;46.46;101212.09;4833648;29;20425;-67
2022/06/28 06:08:22;;;;;;;24.43;9.83;;;;;;;36.56;46.76;101207.53;4825866;29;20486;-66
2022/06/28 06:10:48;;;;;;;26.97;11.70;;;;;;;36.56;46.68;101216.44;4832834;29;20482;-67
2022/06/28 06:13:15;;;;;;;23.90;11.40;;;;;;;36.63;46.77;101213.41;4833992;29;20507;-66
2022/06/28 06:15:41;;;;;;;20.67;10.33;;;;;;;36.67;46.44;101213.63;4840345;29;20528;-68
2022/06/28 06:18:07;;;;;;;19.03;10.33;;;;;;;36.80;45.69;101212.94;4823168;29;20958;-70
2022/06/28 17:50:10;;;;;;;21.47;11.20;;;;;;;37.98;43.32;101099.09;6096484;22;2551652;-73
2022/06/28 17:52:37;;;;;;;20.27;11.30;;;;;;;37.71;43.75;101099.03;6217968;23;20170;-71
2022/06/28 17:55:04;;;;;;;24.40;12.33;;;;;;;37.86;43.38;101110.41;6217494;23;20865;-71
2022/06/28 17:57:32;;;;;;;28.43;9.60;;;;;;;37.83;43.56;101110.22;6218662;23;20379;-71
2022/06/28 17:59:59;;;;;;;16.07;10.37;;;;;;;37.82;43.54;101120.25;6193783;23;20525;-71
2022/06/28 18:02:25;;;;;;;25.93;10.10;;;;;;;37.55;43.96;101117.47;6219356;23;20802;-72
2022/06/28 18:04:51;;;;;;;22.70;11.80;;;;;;;37.40;44.49;101107.72;6219367;23;20387;-72
2022/06/28 18:07:17;;;;;;;19.40;10.77;;;;;;;37.54;44.23;101102.31;6219111;23;20382;-72
2022/06/28 18:09:43;;;;;;;15.70;10.77;;;;;;;37.75;43.93;101114.41;6246405;23;20390;-72
2022/06/28 18:12:10;;;;;;;22.23;10.40;;;;;;;37.70;43.67;101106.38;6246393;23;20688;-71
2022/06/28 18:14:36;;;;;;;17.80;11.07;;;;;;;37.66;44.15;101102.66;6219274;23;20386;-71
2022/06/28 18:17:02;;;;;;;25.23;10.60;;;;;;;37.78;43.79;101113.78;6245886;23;20402;-71
2022/06/28 18:19:28;;;;;;;15.10;9.27;;;;;;;37.79;43.18;101115.38;6246343;23;20351;-72
2022/06/28 18:21:54;;;;;;;21.17;10.37;;;;;;;37.82;43.47;101114.03;6219099;23;20486;-71
2022/06/28 18:24:20;;;;;;;25.77;10.47;;;;;;;37.80;43.72;101117.03;6218841;23;20418;-71
2022/06/28 18:26:46;;;;;;;15.67;11.27;;;;;;;37.94;43.67;101124.34;6245869;23;20745;-70
2022/06/28 18:29:13;;;;;;;30.77;12.50;;;;;;;37.82;43.92;101127.56;6219204;23;20473;-72
2022/06/28 18:31:39;;;;;;;29.10;10.97;;;;;;;37.75;43.81;101130.66;6194014;23;20445;-72
2022/06/28 18:34:05;;;;;;;22.53;11.00;;;;;;;37.82;44.25;101128.38;6218907;23;20497;-71
2022/06/28 18:36:31;;;;;;;20.87;11.97;;;;;;;37.84;43.88;101126.16;6246245;23;20355;-71
2022/06/28 18:38:57;;;;;;;34.83;13.27;;;;;;;37.83;44.24;101137.31;6218928;23;20414;-70
2022/06/28 18:41:23;;;;;;;28.77;11.40;;;;;;;37.80;44.59;101143.28;6193917;23;20382;-69
2022/06/28 18:43:51;;;;;;;23.67;9.90;;;;;;;37.76;44.25;101137.66;6218530;23;20531;-70
2022/06/28 18:46:18;;;;;;;31.03;10.90;;;;;;;37.85;44.34;101151.34;6218427;23;20393;-70
2022/06/28 18:48:44;;;;;;;23.30;10.97;;;;;;;37.55;44.57;101163.47;6215352;23;20738;-71
2022/06/28 18:51:10;;;;;;;15.77;11.43;;;;;;;37.50;44.45;101167.06;6188719;23;20411;-71
2022/06/28 18:53:37;;;;;;;20.27;10.80;;;;;;;37.59;44.50;101176.13;6188664;23;20387;-69
2022/06/28 18:56:03;;;;;;;22.00;10.87;;;;;;;37.73;44.55;101183.47;6215667;23;20364;-69
2022/06/28 18:58:30;;;;;;;22.63;10.80;;;;;;;37.77;44.48;101166.34;6188578;23;20925;-69
2022/06/28 19:00:56;;;;;;;16.00;10.27;;;;;;;37.82;44.40;101174.41;6188609;23;20388;-69
2022/06/28 19:03:22;;;;;;;19.03;10.77;;;;;;;37.71;44.19;101172.16;6215624;23;20860;-71
2022/06/28 19:05:48;;;;;;;34.30;12.63;;;;;;;37.68;44.01;101173.53;6188357;23;20387;-71
2022/06/28 19:08:14;;;;;;;25.93;12.00;;;;;;;37.80;44.00;101184.72;6188362;23;20395;-71
2022/06/28 19:10:41;;;;;;;20.87;10.13;;;;;;;37.64;44.43;101176.03;6187598;23;20391;-69
2022/06/28 19:13:07;;;;;;;22.90;10.50;;;;;;;37.69;44.58;101180.56;6188184;23;20379;-69
2022/06/28 19:15:33;;;;;;;17.50;10.40;;;;;;;37.86;44.13;101174.59;6188177;23;20387;-70
2022/06/28 19:17:59;;;;;;;22.07;10.10;;;;;;;37.93;43.49;101175.00;6187895;23;20391;-70
2022/06/28 19:20:25;;;;;;;29.83;12.47;;;;;;;37.92;43.60;101170.69;6188237;23;20387;-71
2022/06/28 19:22:52;;;;;;;19.50;11.97;;;;;;;37.99;43.05;101183.84;6188057;23;20427;-72
2022/06/28 19:25:18;;;;;;;27.10;14.67;;;;;;;37.83;43.48;101196.88;6188484;23;20721;-72
2022/06/28 19:27:46;;;;;;;18.10;9.97;;;;;;;37.78;43.44;101199.63;6188437;23;20390;-71
2022/06/28 19:30:13;;;;;;;25.93;10.80;;;;;;;37.83;42.69;101192.25;6215724;23;20371;-72
2022/06/28 19:32:39;;;;;;;18.20;9.47;;;;;;;37.76;42.83;101196.44;6188382;23;20443;-70
2022/06/28 19:35:09;;;;;;;19.80;11.47;;;;;;;37.94;42.66;101192.06;6188589;23;20387;-72
2022/06/28 19:37:36;;;;;;;24.73;11.70;;;;;;;37.91;42.25;101198.88;6188431;23;20387;-72
2022/06/28 19:40:03;;;;;;;31.27;13.60;;;;;;;37.89;42.86;101207.31;6188547;23;20379;-72
2022/06/28 19:42:29;;;;;;;28.00;11.80;;;;;;;37.88;42.73;101210.31;6188439;23;20450;-71
2022/06/28 19:44:55;;;;;;;24.77;11.33;;;;;;;37.73;43.16;101215.94;6188273;23;20380;-73
2022/06/28 19:47:21;;;;;;;25.13;13.03;;;;;;;37.63;43.68;101225.88;6188459;23;20414;-71
2022/06/28 19:49:48;;;;;;;28.23;11.30;;;;;;;37.83;44.10;101232.88;6187811;23;20439;-72
2022/06/28 19:52:14;;;;;;;21.70;8.10;;;;;;;37.71;43.87;101234.41;6188505;23;20411;-72
2022/06/28 19:54:40;;;;;;;31.47;11.60;;;;;;;37.58;44.29;101236.78;6188315;23;20458;-72
2022/06/28 19:57:07;;;;;;;23.13;10.03;;;;;;;37.43;44.37;101234.28;6188219;23;20411;-72
2022/06/28 19:59:33;;;;;;;27.73;11.50;;;;;;;37.54;44.04;101237.66;6188305;23;20387;-72
2022/06/28 20:01:59;;;;;;;41.87;9.70;;;;;;;37.33;44.45;101239.84;6188120;23;20726;-72
2022/06/28 20:04:27;;;;;;;30.60;11.63;;;;;;;37.37;44.78;101246.28;6188280;23;20426;-72
2022/06/28 20:06:53;;;;;;;21.03;11.30;;;;;;;37.47;44.63;101253.47;6215221;23;20399;-70
2022/06/28 20:09:20;;;;;;;20.53;10.10;;;;;;;37.29;45.02;101263.16;6187181;23;20448;-72
2022/06/28 20:11:46;;;;;;;44.67;13.30;;;;;;;37.44;44.94;101286.50;6187737;23;20391;-72
2022/06/28 20:14:12;;;;;;;19.87;11.20;;;;;;;37.37;45.07;101286.88;6187810;23;20407;-72
2022/06/28 20:16:38;;;;;;;26.03;11.17;;;;;;;37.49;45.16;101291.84;6187638;23;20379;-72
2022/06/28 20:19:04;;;;;;;27.90;12.00;;;;;;;37.40;45.35;101278.19;6187466;23;20387;-70
2022/06/28 20:21:30;;;;;;;19.10;11.67;;;;;;;37.59;45.10;101280.88;6187031;23;20892;-70
2022/06/28 20:23:57;;;;;;;24.63;12.70;;;;;;;37.51;45.36;101284.25;6187672;23;20940;-70
2022/06/28 20:26:25;;;;;;;24.60;10.80;;;;;;;37.47;45.05;101291.34;6187571;23;20387;-71
2022/06/28 20:28:53;;;;;;;18.57;10.07;;;;;;;37.37;44.83;101293.09;6187832;23;20390;-72
2022/06/28 20:31:19;;;;;;;22.77;12.17;;;;;;;37.11;45.09;101292.59;6187687;23;20414;-70
2022/06/28 20:33:46;;;;;;;15.73;9.60;;;;;;;37.24;45.40;101291.06;6187743;23;20383;-71
2022/06/28 20:36:12;;;;;;;34.73;14.97;;;;;;;37.27;45.30;101297.81;6187804;23;20389;-72
2022/06/28 20:38:38;;;;;;;35.60;11.83;;;;;;;37.31;45.64;101288.00;6214577;23;20890;-72
2022/06/28 20:43:50;;;;;;;23.50;10.63;;;;;;;37.27;45.56;101298.63;6214532;23;20461;-72
2022/06/28 20:46:16;;;;;;;28.50;11.77;;;;;;;37.34;45.62;101298.28;6214729;23;20743;-72
2022/06/28 20:48:42;;;;;;;40.33;12.93;;;;;;;37.06;45.74;101305.38;6187478;23;20387;-72
2022/06/28 20:51:08;;;;;;;17.90;12.10;;;;;;;37.25;46.05;101300.78;6187444;23;20477;-72
2022/06/28 20:53:34;;;;;;;17.83;10.67;;;;;;;37.34;45.96;101314.53;6187917;23;20450;-71
2022/06/28 20:56:00;;;;;;;22.83;11.00;;;;;;;37.49;45.26;101311.59;6214790;23;20383;-70
2022/06/28 20:58:27;;;;;;;31.13;12.70;;;;;;;37.33;45.34;101313.69;6214580;23;20355;-70
2022/06/28 21:00:53;;;;;;;22.43;12.83;;;;;;;37.33;45.10;101316.41;6187745;23;20470;-70
2022/06/28 21:03:20;;;;;;;24.00;12.20;;;;;;;37.48;45.50;101323.53;6162871;23;20436;-72
2022/06/28 21:05:46;;;;;;;32.97;11.23;;;;;;;37.51;44.88;101327.56;6187464;23;20530;-72
2022/06/28 21:08:12;;;;;;;25.77;10.20;;;;;;;37.60;44.63;101328.50;6187630;23;20737;-72
2022/06/28 21:10:39;;;;;;;14.13;9.70;;;;;;;37.68;43.98;101340.56;6215678;23;20441;-73
2022/06/28 21:13:05;;;;;;;23.27;11.07;;;;;;;37.75;44.26;101341.81;6189988;23;20383;-71
2022/06/28 21:15:31;;;;;;;31.27;13.27;;;;;;;37.56;45.06;101333.69;6189614;23;20383;-71
2022/06/28 21:17:57;;;;;;;23.17;11.37;;;;;;;37.69;44.54;101336.75;6189734;23;20696;-72
2022/06/28 21:20:23;;;;;;;24.50;11.13;;;;;;;37.64;44.25;101330.34;6189652;23;20383;-72
2022/06/28 21:22:50;;;;;;;21.70;10.50;;;;;;;37.69;44.47;101326.75;6189606;23;20433;-72
2022/06/28 21:25:16;;;;;;;27.03;11.77;;;;;;;37.74;44.19;101333.97;6189891;23;20395;-72
2022/06/28 21:27:43;;;;;;;19.40;10.50;;;;;;;37.78;44.61;101326.88;6189530;23;20846;-72
2022/06/28 21:30:09;;;;;;;19.63;10.90;;;;;;;37.79;44.79;101328.50;6189339;23;20438;-69
2022/06/28 21:32:35;;;;;;;23.37;11.03;;;;;;;37.80;44.50;101335.50;6189433;23;20783;-69
2022/06/28 21:35:02;;;;;;;22.27;12.13;;;;;;;37.85;44.06;101330.84;6189559;23;20789;-72
2022/06/28 21:37:29;;;;;;;23.60;12.90;;;;;;;37.84;44.05;101329.25;6189687;23;20391;-72
2022/06/28 21:39:55;;;;;;;26.10;10.73;;;;;;;37.77;44.38;101330.69;6189297;23;20863;-72
2022/06/28 21:42:21;;;;;;;22.27;11.47;;;;;;;37.67;44.82;101333.53;6163587;23;20383;-74
2022/06/28 21:44:47;;;;;;;23.37;11.50;;;;;;;37.73;44.50;101330.47;6189886;23;20430;-74
2022/06/28 21:47:13;;;;;;;23.13;12.20;;;;;;;37.83;44.52;101324.13;6216780;23;20360;-73
2022/06/28 21:49:40;;;;;;;20.97;10.90;;;;;;;37.78;44.54;101329.59;6216126;23;20782;-71
2022/06/28 21:52:06;;;;;;;26.07;14.17;;;;;;;37.82;44.36;101333.38;6165589;23;20442;-71
2022/06/28 21:54:33;;;;;;;18.17;12.63;;;;;;;37.86;44.49;101337.06;6216557;23;20804;-71
2022/06/28 21:56:59;;;;;;;34.00;13.97;;;;;;;37.80;44.87;101328.22;6216443;23;20391;-72
2022/06/28 21:59:25;;;;;;;23.83;12.43;;;;;;;37.77;44.50;101334.22;6189418;23;20383;-73
2022/06/28 22:01:51;;;;;;;22.20;11.60;;;;;;;37.67;44.42;101347.88;6164606;23;20382;-72
2022/06/28 22:04:17;;;;;;;26.60;11.70;;;;;;;37.31;44.88;101337.50;6189146;23;20435;-72
2022/06/28 22:06:43;;;;;;;32.27;15.07;;;;;;;37.37;45.39;101338.28;6189250;23;20383;-72
2022/06/28 22:09:11;;;;;;;22.33;13.30;;;;;;;37.63;44.58;101333.34;6189162;23;20798;-72
2022/06/28 22:11:37;;;;;;;28.03;13.03;;;;;;;37.80;44.24;101338.22;6216230;23;20449;-73
2022/06/28 22:14:04;;;;;;;27.10;11.73;;;;;;;37.60;44.93;101331.19;6189322;23;20442;-73
2022/06/28 22:16:31;;;;;;;27.80;14.27;;;;;;;37.62;44.79;101331.72;6189112;23;20415;-73
2022/06/28 22:18:57;;;;;;;17.33;11.27;;;;;;;37.49;44.63;101329.72;6189204;23;20387;-73
2022/06/28 22:21:23;;;;;;;17.43;9.47;;;;;;;37.32;45.12;101338.31;6216017;23;20468;-74
2022/06/28 22:23:50;;;;;;;17.57;11.40;;;;;;;37.30;45.23;101321.56;6189236;23;20433;-74
2022/06/28 22:26:16;;;;;;;21.40;11.67;;;;;;;37.23;45.38;101321.13;6216339;23;20359;-73
2022/06/28 22:28:42;;;;;;;23.60;12.47;;;;;;;37.33;45.30;101315.59;6189073;23;20491;-73
2022/06/28 22:31:08;;;;;;;23.73;10.40;;;;;;;37.02;46.17;101321.38;6189147;23;20407;-73
2022/06/28 22:33:34;;;;;;;18.67;10.07;;;;;;;37.08;45.69;101320.22;6189066;23;20386;-73
2022/06/28 22:36:00;;;;;;;21.70;11.63;;;;;;;37.34;45.66;101322.63;6188774;23;20887;-73
2022/06/28 22:38:27;;;;;;;23.03;10.37;;;;;;;37.35;45.35;101324.25;6189029;23;20815;-73
2022/06/28 22:40:53;;;;;;;19.33;10.30;;;;;;;37.26;45.87;101315.13;6164202;23;20391;-73
2022/06/28 22:43:19;;;;;;;21.90;11.00;;;;;;;37.29;45.75;101306.44;6188809;23;20423;-73
2022/06/28 22:45:45;;;;;;;29.57;11.03;;;;;;;37.32;46.07;101305.84;6188888;23;20444;-73
2022/06/28 22:48:11;;;;;;;15.77;11.63;;;;;;;37.27;46.11;101306.72;6189021;23;20395;-73
2022/06/28 22:50:37;;;;;;;22.50;12.50;;;;;;;37.11;45.96;101303.41;6188399;23;20450;-73